South Lorain, Ohio
Current Conditions -  °F | °C
As of 5:53 AM on Tuesday 21 Oct 2014 (Local Time) from KLPR Reporting Station
Overcast Overcast  
Wind Chill: 50°   Ceiling: 1600
Heat Index: 50°   Visibility: 10mi
Dew Point: 48°   Wind: 8mph
Humidity: 93%   Direction: 350°N
Pressure: 29.88"   Gusts: NA
Location:  41.4372°N, 82.1333°W
Report Text: KLPR 210953Z AUTO 35007KT 10SM BKN016 OVC022 10/09 A2988 RMK AO2 RAB0855E41 SLP118 P0002 T01000089 TSNO
Loading
Personal Weather Stations






























Interactive Weather Map
Tropical Storm Tracking
New forecast layout! Learn more

10-Day Weather Forecast

Advertisements
Track Severe Weather on mobile